Time;durP1;ratioP1;P1;durP2;ratioP2;P2;SDS_P1;SDS_P2;PMS_P1;PMS_P2;Temp;Humidity;BMP_temperature;BMP_pressure;BME280_temperature;BME280_humidity;BME280_pressure;Samples;Min_cycle;Max_cycle;Signal;HPM_P1;HPM_P2
2021/11/28 00:02:13;;;;;;;17.05;7.35;;;;;;;3.60;67.48;97681.78;6123791;23;20029;-62
2021/11/28 00:04:41;;;;;;;16.88;7.00;;;;;;;3.61;67.39;97677.38;6098860;23;20034;-62
2021/11/28 00:07:25;;;;;;;13.90;6.82;;;;;;;3.60;67.45;97681.78;6124140;23;20018;-64
2021/11/28 00:12:38;;;;;;;13.50;6.53;;;;;;;3.62;67.68;97681.66;6123831;23;20443;-61
2021/11/28 00:15:16;;;;;;;16.73;7.20;;;;;;;3.63;67.35;97680.75;6124139;23;20026;-62
2021/11/28 00:17:44;;;;;;;10.32;7.13;;;;;;;3.69;67.67;97684.72;6123947;23;20026;-63
2021/11/28 00:20:15;;;;;;;16.00;7.25;;;;;;;3.70;67.37;97676.00;6123710;23;20491;-62
2021/11/28 00:22:43;;;;;;;12.07;6.32;;;;;;;3.73;67.62;97676.63;6124104;23;20028;-63
2021/11/28 00:25:13;;;;;;;13.50;7.03;;;;;;;3.77;67.88;97672.06;6123691;23;20053;-62
2021/11/28 00:27:41;;;;;;;11.50;6.60;;;;;;;3.80;67.73;97671.03;6098219;23;20029;-63
2021/11/28 00:30:11;;;;;;;12.45;6.53;;;;;;;3.83;67.73;97681.25;6123776;23;20021;-63
2021/11/28 00:32:38;;;;;;;19.85;7.22;;;;;;;3.85;67.18;97674.19;6098356;23;20094;-63
2021/11/28 00:35:06;;;;;;;15.35;6.72;;;;;;;3.86;67.37;97668.06;6124088;23;20018;-62
2021/11/28 00:37:32;;;;;;;18.30;7.38;;;;;;;3.87;67.43;97677.53;6123980;23;20057;-62
2021/11/28 00:39:59;;;;;;;17.17;7.45;;;;;;;3.84;67.38;97681.16;6097689;23;20022;-63
2021/11/28 00:42:26;;;;;;;16.33;8.18;;;;;;;3.83;67.26;97678.66;6123545;23;20022;-63
2021/11/28 00:44:53;;;;;;;15.20;7.40;;;;;;;3.81;67.15;97675.31;6123806;23;20041;-63
2021/11/28 00:47:19;;;;;;;13.88;7.55;;;;;;;3.77;67.06;97680.72;6123429;23;20030;-62
2021/11/28 00:52:33;;;;;;;14.20;7.10;;;;;;;3.71;66.96;97683.72;6124097;23;20021;-61
2021/11/28 00:55:00;;;;;;;11.10;6.95;;;;;;;3.70;67.13;97692.44;6123671;23;20022;-62
2021/11/28 00:57:27;;;;;;;16.55;7.93;;;;;;;3.68;67.28;97683.91;6123993;23;20026;-61
2021/11/28 00:59:55;;;;;;;15.23;7.28;;;;;;;3.67;67.20;97691.78;6097607;23;20073;-61
2021/11/28 01:02:23;;;;;;;13.57;6.60;;;;;;;3.65;67.54;97689.28;6123606;23;20022;-61
2021/11/28 01:04:50;;;;;;;15.20;6.47;;;;;;;3.65;67.24;97694.47;6098069;23;20022;-61
2021/11/28 01:07:16;;;;;;;13.70;7.60;;;;;;;3.64;67.33;97695.41;6097619;23;20057;-61
2021/11/28 01:09:43;;;;;;;18.75;7.30;;;;;;;3.63;67.51;97693.75;6123909;23;20029;-61
2021/11/28 01:12:10;;;;;;;11.38;7.15;;;;;;;3.61;67.44;97691.25;6124701;23;20026;-61
2021/11/28 01:14:37;;;;;;;15.57;7.63;;;;;;;3.61;67.14;97693.00;6124919;23;20333;-60
2021/11/28 01:17:04;;;;;;;17.27;7.53;;;;;;;3.59;67.20;97698.28;6099017;23;20368;-63
2021/11/28 01:19:32;;;;;;;13.77;7.95;;;;;;;3.59;67.55;97700.91;6099883;23;20028;-62
2021/11/28 01:22:04;;;;;;;13.77;6.80;;;;;;;3.57;67.39;97700.16;6099608;23;20029;-62
2021/11/28 01:24:30;;;;;;;15.05;6.78;;;;;;;3.58;67.53;97704.44;6099285;23;20017;-62
2021/11/28 01:26:58;;;;;;;14.23;6.85;;;;;;;3.57;67.48;97707.97;6099695;23;20021;-63
2021/11/28 01:29:25;;;;;;;17.33;7.53;;;;;;;3.58;67.63;97711.38;6099959;23;20022;-63
2021/11/28 01:31:52;;;;;;;14.68;6.72;;;;;;;3.58;67.85;97707.03;6125657;23;20026;-62
2021/11/28 01:34:19;;;;;;;12.82;6.68;;;;;;;3.61;67.77;97714.66;6125760;23;20029;-63
2021/11/28 01:36:46;;;;;;;15.20;6.72;;;;;;;3.61;67.47;97716.41;6099565;23;20375;-62
2021/11/28 01:39:13;;;;;;;15.32;6.82;;;;;;;3.62;67.62;97718.94;6125944;23;20026;-62
2021/11/28 01:41:43;;;;;;;11.63;6.47;;;;;;;3.64;67.42;97726.66;6100742;23;20515;-61
2021/11/28 01:44:10;;;;;;;13.10;6.80;;;;;;;3.64;67.28;97729.25;6125075;23;20022;-62
2021/11/28 01:46:37;;;;;;;14.57;6.70;;;;;;;3.65;67.56;97728.31;6099722;23;20317;-61
2021/11/28 01:49:06;;;;;;;16.05;7.15;;;;;;;3.64;67.45;97730.09;6125450;23;20022;-63
2021/11/28 01:51:33;;;;;;;16.10;7.22;;;;;;;3.64;67.34;97724.88;6099596;23;20455;-62
2021/11/28 01:54:00;;;;;;;12.52;6.82;;;;;;;3.64;67.44;97724.03;6125453;23;20122;-62
2021/11/28 01:56:27;;;;;;;14.15;8.15;;;;;;;3.64;67.12;97724.88;6123732;23;20036;-63
2021/11/28 01:58:54;;;;;;;12.38;6.85;;;;;;;3.64;67.23;97721.44;6099404;23;20022;-61
2021/11/28 02:01:22;;;;;;;13.85;7.40;;;;;;;3.65;67.17;97728.31;6124794;23;20018;-62
2021/11/28 02:03:49;;;;;;;12.68;7.35;;;;;;;3.66;67.67;97719.56;6125145;23;20025;-62
2021/11/28 02:06:19;;;;;;;16.25;7.40;;;;;;;3.67;67.24;97723.00;6099432;23;20093;-63
2021/11/28 02:08:46;;;;;;;12.70;6.97;;;;;;;3.69;67.62;97718.53;6099082;23;20510;-62
2021/11/28 02:11:13;;;;;;;12.65;7.07;;;;;;;3.69;67.54;97719.38;6098788;23;20026;-61
2021/11/28 02:13:41;;;;;;;16.25;7.53;;;;;;;3.69;67.26;97714.19;6124771;23;20467;-61
2021/11/28 02:16:09;;;;;;;12.57;7.13;;;;;;;3.71;67.43;97719.28;6098738;23;20510;-64
2021/11/28 02:18:38;;;;;;;15.85;7.75;;;;;;;3.70;67.06;97715.03;6099307;23;20036;-62
2021/11/28 02:21:07;;;;;;;12.50;6.80;;;;;;;3.71;67.42;97720.16;6098547;23;20038;-63
2021/11/28 02:23:34;;;;;;;14.63;7.07;;;;;;;3.72;67.08;97723.56;6124316;23;20084;-62
2021/11/28 02:26:05;;;;;;;18.75;7.13;;;;;;;3.71;67.46;97720.16;6122955;23;20089;-64
2021/11/28 02:28:34;;;;;;;12.75;7.07;;;;;;;3.73;67.16;97723.47;6098905;23;20100;-63
2021/11/28 02:31:02;;;;;;;12.85;6.35;;;;;;;3.74;67.27;97717.31;6098404;23;20018;-62
2021/11/28 02:33:29;;;;;;;11.70;6.63;;;;;;;3.75;66.96;97732.03;6099075;23;20030;-62
2021/11/28 02:35:57;;;;;;;11.82;6.72;;;;;;;3.76;67.06;97732.84;6099048;23;20026;-62
2021/11/28 02:38:24;;;;;;;13.05;7.15;;;;;;;3.75;66.80;97737.25;6098664;23;20030;-63
2021/11/28 02:40:51;;;;;;;15.90;7.18;;;;;;;3.73;66.63;97739.09;6098704;23;20022;-63
2021/11/28 02:43:18;;;;;;;15.32;7.28;;;;;;;3.71;67.17;97729.69;6124040;23;20018;-62
2021/11/28 02:45:44;;;;;;;11.88;6.88;;;;;;;3.70;67.16;97728.03;6099054;23;20096;-63
2021/11/28 02:48:13;;;;;;;12.35;6.60;;;;;;;3.69;67.16;97728.94;6098772;23;20280;-62
2021/11/28 02:50:42;;;;;;;15.77;7.10;;;;;;;3.68;66.91;97728.13;6098322;23;20022;-61
2021/11/28 02:53:09;;;;;;;16.33;6.80;;;;;;;3.67;67.27;97723.84;6124192;23;20018;-61
2021/11/28 02:55:48;;;;;;;13.02;6.82;;;;;;;3.65;67.06;97731.75;6124492;23;20018;-62
2021/11/28 02:58:19;;;;;;;14.38;6.15;;;;;;;3.68;67.29;97729.88;6098754;23;20025;-63
2021/11/28 03:00:50;;;;;;;10.25;6.25;;;;;;;3.69;67.28;97721.97;6096639;23;20073;-61
2021/11/28 03:03:17;;;;;;;11.13;6.22;;;;;;;3.71;67.32;97719.28;6098502;23;20026;-62
2021/11/28 03:05:44;;;;;;;11.90;6.47;;;;;;;3.72;67.06;97726.16;6098350;23;20053;-62
2021/11/28 03:08:14;;;;;;;12.07;6.55;;;;;;;3.72;67.51;97729.63;6097853;23;20030;-61
2021/11/28 03:10:46;;;;;;;15.52;6.53;;;;;;;3.74;67.16;97725.13;6124320;23;20032;-62
2021/11/28 03:13:19;;;;;;;8.65;6.60;;;;;;;3.77;67.44;97724.94;6124619;23;20109;-61
2021/11/28 03:15:47;;;;;;;15.38;6.18;;;;;;;3.82;67.72;97723.84;6124248;23;20025;-64
2021/11/28 03:18:17;;;;;;;14.90;5.85;;;;;;;3.85;67.65;97732.28;6098611;23;20018;-61
2021/11/28 03:20:45;;;;;;;11.93;5.93;;;;;;;3.89;67.44;97732.94;6097954;23;20482;-62
2021/11/28 03:23:14;;;;;;;15.82;7.45;;;;;;;3.92;67.75;97732.72;6098401;23;20022;-63
2021/11/28 03:25:41;;;;;;;12.15;6.30;;;;;;;3.96;67.39;97729.00;6097675;23;20475;-62
2021/11/28 03:28:19;;;;;;;15.60;6.70;;;;;;;3.98;67.26;97723.69;6098394;23;20022;-62
2021/11/28 03:30:48;;;;;;;11.25;6.30;;;;;;;4.02;67.03;97731.25;6095681;23;20022;-64
2021/11/28 03:33:15;;;;;;;17.52;7.07;;;;;;;4.04;67.08;97731.97;6097736;23;20029;-62
2021/11/28 03:35:42;;;;;;;15.30;7.10;;;;;;;4.06;66.92;97736.22;6097764;23;20018;-64
2021/11/28 03:38:09;;;;;;;13.77;5.95;;;;;;;4.05;67.10;97730.22;6123411;23;20442;-62
2021/11/28 03:40:38;;;;;;;12.23;6.25;;;;;;;4.06;66.79;97737.06;6122762;23;20074;-64
2021/11/28 03:43:05;;;;;;;11.18;6.20;;;;;;;4.07;66.92;97738.75;6097587;23;20030;-61
2021/11/28 03:45:32;;;;;;;10.48;6.10;;;;;;;4.06;66.92;97744.03;6098025;23;20089;-61
2021/11/28 03:47:59;;;;;;;10.77;6.35;;;;;;;4.06;66.94;97744.88;6097677;23;20026;-62
2021/11/28 03:50:26;;;;;;;15.02;6.22;;;;;;;4.06;66.94;97744.88;6123397;23;20026;-61
2021/11/28 03:52:53;;;;;;;11.18;6.25;;;;;;;4.06;66.69;97744.03;6123474;23;20041;-63
2021/11/28 03:55:22;;;;;;;14.27;7.07;;;;;;;4.06;66.98;97737.06;6097831;23;20029;-61
2021/11/28 03:57:48;;;;;;;11.30;6.22;;;;;;;4.05;66.96;97732.81;6123251;23;20025;-64
2021/11/28 04:00:15;;;;;;;17.13;6.55;;;;;;;4.06;66.88;97741.44;6123142;23;20018;-62
2021/11/28 04:02:42;;;;;;;11.80;5.90;;;;;;;4.05;66.92;97743.22;6123672;23;20033;-61
2021/11/28 04:05:10;;;;;;;10.88;5.95;;;;;;;4.05;66.87;97740.63;6123178;23;20105;-62
2021/11/28 04:07:37;;;;;;;14.52;7.25;;;;;;;4.04;67.18;97742.38;6097390;23;20080;-63
2021/11/28 04:10:06;;;;;;;10.27;6.55;;;;;;;4.05;66.86;97740.63;6122873;23;20041;-62
2021/11/28 04:12:32;;;;;;;12.52;6.75;;;;;;;4.06;67.07;97741.44;6123089;23;20022;-62
2021/11/28 04:15:00;;;;;;;12.68;6.32;;;;;;;4.06;67.17;97744.88;6123203;23;20029;-62
2021/11/28 04:17:28;;;;;;;18.02;7.28;;;;;;;4.06;66.79;97744.03;6097355;23;20030;-62
2021/11/28 04:19:54;;;;;;;10.43;6.82;;;;;;;4.05;66.73;97745.81;6097354;23;20558;-62
2021/11/28 04:22:21;;;;;;;12.45;6.18;;;;;;;4.03;66.71;97747.69;6123264;23;20028;-63
2021/11/28 04:24:49;;;;;;;11.57;6.60;;;;;;;4.01;66.69;97755.56;6123722;23;20022;-61
2021/11/28 04:27:16;;;;;;;13.35;7.43;;;;;;;4.01;66.70;97758.19;6097489;23;20029;-61
2021/11/28 04:29:43;;;;;;;14.73;6.60;;;;;;;4.00;66.66;97756.50;6122855;23;20026;-61
2021/11/28 04:32:09;;;;;;;14.43;7.20;;;;;;;3.98;66.59;97758.41;6123076;23;20085;-64
2021/11/28 04:34:36;;;;;;;12.70;6.35;;;;;;;3.97;66.70;97756.72;6123253;23;20022;-62
2021/11/28 04:37:03;;;;;;;11.00;6.00;;;;;;;3.97;66.87;97761.94;6123505;23;20037;-62
2021/11/28 04:39:30;;;;;;;11.55;6.15;;;;;;;3.97;66.86;97767.16;6122942;23;20018;-62
2021/11/28 04:41:56;;;;;;;12.75;7.00;;;;;;;3.97;66.73;97764.53;6098018;23;20038;-63
2021/11/28 04:44:23;;;;;;;13.25;6.60;;;;;;;3.98;66.99;97762.75;6124872;23;20100;-62
2021/11/28 04:46:51;;;;;;;16.25;7.13;;;;;;;3.99;66.78;97767.88;6125528;23;20018;-62
2021/11/28 04:49:18;;;;;;;15.23;7.15;;;;;;;3.99;66.92;97767.88;6124717;23;20032;-63
2021/11/28 04:51:44;;;;;;;15.50;6.78;;;;;;;4.00;66.88;97771.31;6125006;23;20081;-62
2021/11/28 04:54:12;;;;;;;13.57;7.15;;;;;;;4.01;66.94;97768.59;6125363;23;20025;-62
2021/11/28 04:56:39;;;;;;;15.27;6.80;;;;;;;4.03;67.05;97761.53;6124882;23;20021;-62
2021/11/28 04:59:06;;;;;;;16.23;7.00;;;;;;;4.06;67.45;97770.94;6125010;23;20443;-66
2021/11/28 05:01:32;;;;;;;13.77;6.82;;;;;;;4.08;66.92;97766.47;6125359;23;20021;-63
2021/11/28 05:03:59;;;;;;;12.00;7.05;;;;;;;4.10;67.15;97771.56;6099375;23;20017;-63
2021/11/28 05:06:27;;;;;;;12.50;7.10;;;;;;;4.11;67.22;97768.88;6125104;23;20042;-62
2021/11/28 05:08:54;;;;;;;15.07;7.50;;;;;;;4.13;67.08;97766.16;6099140;23;20100;-62
2021/11/28 05:11:21;;;;;;;21.17;7.05;;;;;;;4.15;67.41;97767.75;6124703;23;20018;-62
2021/11/28 05:13:48;;;;;;;17.17;7.20;;;;;;;4.17;67.41;97759.84;6124439;23;20030;-62
2021/11/28 05:16:14;;;;;;;10.68;6.93;;;;;;;4.18;67.04;97771.91;6124902;23;20021;-62
2021/11/28 05:18:41;;;;;;;12.27;7.65;;;;;;;4.19;67.02;97765.81;6124627;23;20018;-62
2021/11/28 05:21:13;;;;;;;14.50;7.78;;;;;;;4.21;67.16;97769.13;6124485;23;20033;-62
2021/11/28 05:23:40;;;;;;;14.10;7.40;;;;;;;4.22;67.29;97770.78;6124893;23;20029;-62
2021/11/28 05:26:07;;;;;;;12.82;6.80;;;;;;;4.23;66.96;97776.84;6123408;23;20026;-62
2021/11/28 05:28:34;;;;;;;16.42;7.15;;;;;;;4.24;67.07;97773.31;6125052;23;20034;-63
2021/11/28 05:31:01;;;;;;;13.98;7.38;;;;;;;4.24;67.19;97761.13;6125708;23;20026;-62
2021/11/28 05:33:29;;;;;;;13.32;7.28;;;;;;;4.24;66.66;97774.16;6098895;23;20040;-64
2021/11/28 05:35:55;;;;;;;13.43;7.75;;;;;;;4.24;66.95;97775.91;6124759;23;20022;-62
2021/11/28 05:38:22;;;;;;;16.10;6.93;;;;;;;4.22;66.86;97776.00;6124404;23;20018;-62
2021/11/28 05:40:50;;;;;;;11.68;6.75;;;;;;;4.20;66.51;97777.88;6098859;23;20030;-64
2021/11/28 05:43:17;;;;;;;11.70;6.88;;;;;;;4.17;66.65;97776.31;6098972;23;20343;-61
2021/11/28 05:45:43;;;;;;;10.15;6.40;;;;;;;4.14;66.47;97778.25;6122961;23;20018;-61
2021/11/28 05:48:10;;;;;;;16.23;7.47;;;;;;;4.11;66.35;97788.88;6124455;23;20036;-62
2021/11/28 05:50:37;;;;;;;11.82;7.13;;;;;;;4.08;66.70;97791.66;6123906;23;20037;-61
2021/11/28 05:53:03;;;;;;;12.73;7.20;;;;;;;4.04;66.76;97786.63;6124355;23;20033;-63
2021/11/28 05:55:30;;;;;;;14.40;7.57;;;;;;;4.03;66.76;97795.38;6098116;23;20399;-63
2021/11/28 05:57:57;;;;;;;16.50;7.55;;;;;;;4.01;67.02;97792.03;6124113;23;20447;-62
2021/11/28 06:00:26;;;;;;;11.45;7.03;;;;;;;4.03;66.96;97794.53;6124196;23;20053;-62
2021/11/28 06:02:54;;;;;;;14.45;7.38;;;;;;;4.03;66.92;97790.19;6099541;23;20138;-62
2021/11/28 06:05:20;;;;;;;13.75;7.53;;;;;;;4.04;67.22;97793.63;6124331;23;20041;-63
2021/11/28 06:07:47;;;;;;;10.07;7.60;;;;;;;4.06;67.09;97796.97;6123996;23;20022;-62
2021/11/28 06:10:14;;;;;;;12.73;7.78;;;;;;;4.08;67.06;97794.25;6122618;23;20033;-62
2021/11/28 06:12:40;;;;;;;18.02;7.90;;;;;;;4.10;67.08;97795.00;6124122;23;20459;-62
2021/11/28 06:15:07;;;;;;;15.68;7.95;;;;;;;4.11;67.16;97804.50;6124410;23;20021;-61
2021/11/28 06:17:34;;;;;;;15.95;8.10;;;;;;;4.11;67.21;97804.50;6123829;23;20444;-62
2021/11/28 06:20:01;;;;;;;17.02;8.93;;;;;;;4.12;67.37;97806.97;6123906;23;20069;-61
2021/11/28 06:22:27;;;;;;;16.25;7.85;;;;;;;4.14;67.08;97807.75;6123926;23;20032;-62
2021/11/28 06:24:54;;;;;;;12.38;7.55;;;;;;;4.16;67.12;97813.66;6123626;23;20022;-62
2021/11/28 06:27:21;;;;;;;12.95;8.02;;;;;;;4.17;67.35;97810.16;6123698;23;20333;-62
2021/11/28 06:29:47;;;;;;;13.88;7.65;;;;;;;4.19;67.44;97807.47;6123420;23;20037;-63
2021/11/28 06:32:15;;;;;;;18.60;8.32;;;;;;;4.21;67.30;97804.75;6123538;23;20388;-62
2021/11/28 06:34:43;;;;;;;15.40;8.23;;;;;;;4.23;67.24;97808.91;6124112;23;20114;-61
2021/11/28 06:37:10;;;;;;;12.35;7.72;;;;;;;4.24;67.16;97807.16;6098167;23;20030;-61
2021/11/28 06:39:57;;;;;;;12.52;8.48;;;;;;;4.27;67.39;97801.78;6123632;23;20018;-62
2021/11/28 06:42:24;;;;;;;12.77;8.00;;;;;;;4.28;67.38;97812.09;6097848;23;20033;-62
2021/11/28 06:44:50;;;;;;;14.43;7.90;;;;;;;4.30;67.01;97814.59;6124115;23;20081;-63
2021/11/28 06:47:36;;;;;;;12.73;7.72;;;;;;;4.32;67.25;97824.91;6124134;23;20033;-61
2021/11/28 06:50:03;;;;;;;12.43;7.85;;;;;;;4.34;67.31;97823.88;6124182;23;20029;-63
2021/11/28 06:52:30;;;;;;;17.05;8.75;;;;;;;4.35;67.26;97822.97;6124129;23;20026;-61
2021/11/28 06:54:57;;;;;;;15.35;8.23;;;;;;;4.36;67.24;97829.00;6124208;23;20018;-62
2021/11/28 06:57:23;;;;;;;17.67;8.70;;;;;;;4.36;67.36;97829.00;6124220;23;20026;-62
2021/11/28 06:59:50;;;;;;;20.05;8.40;;;;;;;4.36;67.24;97831.59;6123284;23;20018;-60
2021/11/28 07:02:17;;;;;;;17.25;8.65;;;;;;;4.36;67.05;97835.06;6123268;23;20451;-61
2021/11/28 07:04:44;;;;;;;17.88;7.88;;;;;;;4.35;67.12;97833.38;6123867;23;20025;-63
2021/11/28 07:07:11;;;;;;;12.98;7.78;;;;;;;4.34;67.02;97831.69;6123403;23;20021;-63
2021/11/28 07:09:38;;;;;;;15.50;8.13;;;;;;;4.33;66.96;97832.63;6123428;23;20443;-61
2021/11/28 07:12:05;;;;;;;16.80;9.32;;;;;;;4.29;66.93;97829.38;6123696;23;20022;-62
2021/11/28 07:14:35;;;;;;;19.17;9.45;;;;;;;4.26;66.82;97834.78;6123416;23;20025;-61
2021/11/28 07:17:02;;;;;;;17.58;8.95;;;;;;;4.23;66.92;97841.97;6123346;23;20451;-61
2021/11/28 07:19:29;;;;;;;14.07;8.00;;;;;;;4.19;66.76;97849.13;6122564;23;20050;-64
2021/11/28 07:21:57;;;;;;;15.85;8.82;;;;;;;4.14;66.97;97851.16;6122861;23;20034;-63
2021/11/28 07:24:23;;;;;;;14.00;8.05;;;;;;;4.11;66.84;97846.16;6123269;23;20022;-61
2021/11/28 07:26:51;;;;;;;17.77;9.25;;;;;;;4.07;67.13;97845.50;6123479;23;20037;-62
2021/11/28 07:29:18;;;;;;;18.27;7.88;;;;;;;4.06;66.84;97850.78;6122572;23;20025;-63
2021/11/28 07:31:45;;;;;;;15.52;8.35;;;;;;;4.02;66.73;97851.00;6123131;23;20026;-60
2021/11/28 07:34:12;;;;;;;18.55;8.18;;;;;;;4.00;67.04;97858.06;6122811;23;20404;-61
2021/11/28 07:36:39;;;;;;;14.30;8.63;;;;;;;3.96;67.07;97853.97;6123098;23;20459;-62
2021/11/28 07:39:09;;;;;;;15.50;8.82;;;;;;;3.95;67.39;97856.66;6123141;23;20026;-66
2021/11/28 07:41:37;;;;;;;12.02;8.30;;;;;;;3.93;67.46;97854.16;6097813;23;20033;-62
2021/11/28 07:44:04;;;;;;;10.82;8.18;;;;;;;3.94;67.52;97857.59;6123231;23;20032;-64
2021/11/28 07:46:31;;;;;;;14.07;9.15;;;;;;;3.93;67.19;97861.97;6123423;23;20018;-61
2021/11/28 07:48:57;;;;;;;13.13;7.60;;;;;;;3.94;67.55;97863.63;6123111;23;20371;-63
2021/11/28 07:51:25;;;;;;;13.68;7.90;;;;;;;3.94;67.48;97870.59;6123239;23;20026;-60
2021/11/28 07:53:52;;;;;;;14.77;8.80;;;;;;;3.96;67.68;97874.78;6122778;23;20030;-65
2021/11/28 07:56:20;;;;;;;16.42;8.02;;;;;;;3.99;67.67;97874.59;6122814;23;20029;-61
2021/11/28 07:58:47;;;;;;;16.52;8.82;;;;;;;4.03;67.51;97875.25;6122365;23;20065;-61
2021/11/28 08:01:13;;;;;;;13.05;8.25;;;;;;;4.06;67.66;97874.22;6123066;23;20018;-60
2021/11/28 08:03:40;;;;;;;12.20;7.70;;;;;;;4.10;67.44;97880.91;6122909;23;20026;-62
2021/11/28 08:06:08;;;;;;;13.13;7.65;;;;;;;4.11;67.80;97883.44;6122849;23;20060;-62
2021/11/28 08:08:36;;;;;;;15.48;8.52;;;;;;;4.14;67.58;97890.22;6097531;23;20076;-61
2021/11/28 08:11:02;;;;;;;16.20;8.35;;;;;;;4.16;67.09;97890.97;6122972;23;20041;-61
2021/11/28 08:13:29;;;;;;;20.73;8.73;;;;;;;4.17;67.22;97877.03;6122847;23;20467;-61
2021/11/28 08:15:56;;;;;;;15.10;7.85;;;;;;;4.17;67.30;97883.06;6123104;23;20108;-61
2021/11/28 08:18:23;;;;;;;17.58;7.95;;;;;;;4.18;67.48;97881.28;6123072;23;20044;-62
2021/11/28 08:20:49;;;;;;;15.52;8.02;;;;;;;4.18;67.15;97881.28;6122801;23;20017;-61
2021/11/28 08:23:16;;;;;;;16.13;8.70;;;;;;;4.19;67.25;97892.56;6123254;23;20029;-63
2021/11/28 08:25:43;;;;;;;13.23;7.65;;;;;;;4.19;67.36;97898.63;6122959;23;20029;-62
2021/11/28 08:28:09;;;;;;;12.15;7.47;;;;;;;4.19;67.43;97892.56;6123219;23;20022;-61
2021/11/28 08:30:37;;;;;;;16.25;8.55;;;;;;;4.21;67.39;97891.53;6122843;23;20026;-61
2021/11/28 08:33:05;;;;;;;14.48;8.63;;;;;;;4.22;67.53;97898.41;6097458;23;20030;-62
2021/11/28 08:35:33;;;;;;;13.20;8.50;;;;;;;4.26;67.53;97889.47;6097317;23;20025;-61
2021/11/28 08:38:03;;;;;;;15.35;8.40;;;;;;;4.28;67.47;97884.19;6097510;23;20073;-61
2021/11/28 08:40:30;;;;;;;15.40;7.88;;;;;;;4.32;67.47;97890.88;6073628;23;20042;-61
2021/11/28 08:42:57;;;;;;;16.02;8.73;;;;;;;4.35;67.89;97892.44;6123073;23;20033;-61
2021/11/28 08:45:23;;;;;;;13.90;8.60;;;;;;;4.39;67.50;97891.31;6122983;23;20022;-61
2021/11/28 08:47:50;;;;;;;14.95;9.00;;;;;;;4.40;67.16;97893.00;6122714;23;20025;-62
2021/11/28 08:50:17;;;;;;;10.70;7.57;;;;;;;4.40;67.50;97895.59;6122386;23;20415;-63
2021/11/28 08:52:45;;;;;;;15.07;9.30;;;;;;;4.39;67.11;97899.16;6097388;23;20081;-60
2021/11/28 08:55:14;;;;;;;14.93;8.65;;;;;;;4.39;67.13;97901.75;6096898;23;20040;-61
2021/11/28 08:57:40;;;;;;;16.23;9.68;;;;;;;4.37;66.91;97898.41;6097199;23;20030;-68
2021/11/28 09:00:09;;;;;;;16.63;9.07;;;;;;;4.34;67.13;97894.19;6122372;23;20026;-60
2021/11/28 09:02:35;;;;;;;19.95;9.70;;;;;;;4.32;67.14;97890.03;6123006;23;20129;-62
2021/11/28 09:05:05;;;;;;;20.95;10.13;;;;;;;4.29;66.88;97893.66;6123081;23;20026;-61
2021/11/28 09:07:32;;;;;;;20.80;9.40;;;;;;;4.27;67.41;97898.13;6096998;23;20041;-63
2021/11/28 09:09:59;;;;;;;18.02;9.82;;;;;;;4.25;67.11;97900.81;6122704;23;20049;-61
2021/11/28 09:12:26;;;;;;;19.85;9.95;;;;;;;4.25;67.57;97907.78;6122843;23;20048;-62
2021/11/28 09:14:53;;;;;;;19.85;9.73;;;;;;;4.24;67.49;97904.38;6122716;23;20022;-61
2021/11/28 09:17:19;;;;;;;14.23;9.35;;;;;;;4.26;67.78;97917.31;6123379;23;20248;-61
2021/11/28 09:19:54;;;;;;;18.42;10.23;;;;;;;4.28;67.99;97905.00;6122679;23;20032;-62
2021/11/28 09:24:23;;;;;;;17.00;10.60;;;;;;;4.33;68.07;97920.38;6096882;23;20093;-61
2021/11/28 09:25:08;;;;;;;18.77;10.65;;;;;;;4.39;68.24;97923.44;6122055;23;20030;-64
2021/11/28 09:27:36;;;;;;;16.10;10.43;;;;;;;4.43;68.16;97919.72;6122580;23;20522;-61
2021/11/28 09:30:03;;;;;;;17.98;11.50;;;;;;;4.50;68.30;97921.94;6122940;23;20026;-61
2021/11/28 09:32:31;;;;;;;24.02;12.48;;;;;;;4.55;68.42;97912.91;6124618;23;20022;-62
2021/11/28 09:34:57;;;;;;;18.50;11.02;;;;;;;4.60;68.56;97903.97;6122570;23;20034;-61
2021/11/28 09:37:24;;;;;;;19.48;11.77;;;;;;;4.66;68.17;97919.19;6122864;23;20018;-62
2021/11/28 09:39:51;;;;;;;21.92;12.48;;;;;;;4.70;68.50;97910.25;6123945;23;20105;-61
2021/11/28 09:42:25;;;;;;;20.02;12.52;;;;;;;4.74;68.49;97918.75;6124152;23;20057;-63
2021/11/28 09:44:52;;;;;;;22.02;13.18;;;;;;;4.81;68.59;97920.00;6124228;23;20022;-61
2021/11/28 09:47:19;;;;;;;22.50;13.60;;;;;;;4.88;68.50;97920.47;6124393;23;20029;-63
2021/11/28 09:49:46;;;;;;;22.02;13.50;;;;;;;4.93;68.54;97923.59;6098297;23;20029;-63
2021/11/28 09:52:16;;;;;;;21.80;12.95;;;;;;;4.98;68.66;97921.56;6123985;23;20026;-63
2021/11/28 09:54:44;;;;;;;21.23;13.55;;;;;;;5.06;68.61;97921.06;6098529;23;20474;-61
2021/11/28 09:57:17;;;;;;;22.02;12.70;;;;;;;5.11;68.43;97923.38;6124151;23;20017;-61
2021/11/28 09:59:45;;;;;;;21.95;12.63;;;;;;;5.18;68.54;97929.88;6123147;23;20062;-64
2021/11/28 10:02:30;;;;;;;22.38;13.88;;;;;;;5.22;67.95;97915.69;6096118;23;20018;-62
2021/11/28 10:05:02;;;;;;;25.67;13.40;;;;;;;5.30;68.31;97923.00;6096549;23;20069;-62
2021/11/28 10:07:29;;;;;;;21.27;12.48;;;;;;;5.34;68.52;97920.13;6122066;23;20026;-62
2021/11/28 10:09:57;;;;;;;21.42;13.98;;;;;;;5.40;68.43;97920.66;6122136;23;20037;-62
2021/11/28 10:12:26;;;;;;;23.77;14.88;;;;;;;5.44;68.26;97919.50;6121775;23;20018;-62
2021/11/28 10:15:06;;;;;;;31.90;17.50;;;;;;;5.46;68.24;97915.03;6122840;23;20470;-62
2021/11/28 10:17:36;;;;;;;24.10;14.70;;;;;;;5.53;68.37;97916.28;6098543;23;20018;-63
2021/11/28 10:20:14;;;;;;;25.25;15.25;;;;;;;5.55;68.18;97913.59;6124009;23;20021;-61
2021/11/28 10:22:41;;;;;;;26.65;15.88;;;;;;;5.62;68.37;97909.63;6124212;23;20022;-62
2021/11/28 10:25:34;;;;;;;24.20;15.20;;;;;;;5.61;68.04;97914.00;6098420;23;20034;-61
2021/11/28 10:28:05;;;;;;;25.20;15.23;;;;;;;5.68;68.33;97911.84;6119668;23;20026;-63
2021/11/28 10:30:43;;;;;;;26.23;15.70;;;;;;;5.70;67.95;97909.97;6123700;23;20081;-63
2021/11/28 10:33:16;;;;;;;25.92;15.95;;;;;;;5.76;68.29;97910.50;6123503;23;20410;-62
2021/11/28 10:36:03;;;;;;;26.83;16.60;;;;;;;5.77;68.15;97907.78;6124222;23;20018;-61
2021/11/28 10:38:41;;;;;;;24.52;14.48;;;;;;;5.82;68.22;97908.31;6123547;23;20034;-62
2021/11/28 10:41:22;;;;;;;28.08;16.10;;;;;;;5.85;68.25;97913.31;6097596;23;20057;-62
2021/11/28 10:43:48;;;;;;;26.27;16.13;;;;;;;5.92;68.26;97910.28;6123560;23;20085;-61
2021/11/28 10:46:24;;;;;;;26.77;15.98;;;;;;;5.91;68.13;97911.22;6123831;23;20022;-61
2021/11/28 10:49:03;;;;;;;27.30;17.08;;;;;;;5.93;67.65;97910.19;6123966;23;20064;-62
2021/11/28 10:51:32;;;;;;;26.02;15.45;;;;;;;5.97;67.81;97902.97;6124017;23;20458;-61
2021/11/28 10:53:58;;;;;;;30.40;17.02;;;;;;;5.96;67.57;97899.53;6123824;23;20041;-62
2021/11/28 10:56:25;;;;;;;28.02;16.00;;;;;;;5.95;67.65;97903.06;6123600;23;20026;-65
2021/11/28 10:58:54;;;;;;;22.88;15.32;;;;;;;5.93;67.59;97899.75;6123374;23;20029;-62
2021/11/28 11:01:28;;;;;;;24.38;15.00;;;;;;;5.90;67.72;97901.72;6121801;23;20080;-61
2021/11/28 11:03:55;;;;;;;26.92;16.15;;;;;;;5.91;67.81;97909.44;6097939;23;20018;-62
2021/11/28 11:06:25;;;;;;;27.17;15.93;;;;;;;5.90;67.84;97904.34;6123435;23;20506;-61
2021/11/28 11:09:21;;;;;;;23.55;14.82;;;;;;;5.86;67.84;97904.53;6097852;23;20018;-61
2021/11/28 11:11:47;;;;;;;22.05;13.23;;;;;;;5.91;68.02;97904.22;6124119;23;20030;-61
2021/11/28 11:14:15;;;;;;;21.95;14.35;;;;;;;5.90;68.01;97904.34;6123685;23;20053;-61
2021/11/28 11:16:43;;;;;;;23.75;15.65;;;;;;;5.91;68.18;97906.81;6098215;23;20101;-61
2021/11/28 11:19:24;;;;;;;26.45;15.48;;;;;;;5.92;67.87;97905.06;6097271;23;20474;-65
2021/11/28 11:22:11;;;;;;;21.52;14.35;;;;;;;5.93;67.79;97910.19;6097661;23;20037;-62
2021/11/28 11:24:41;;;;;;;21.13;13.68;;;;;;;5.98;67.90;97910.72;6097603;23;20451;-61
2021/11/28 11:27:22;;;;;;;21.90;14.90;;;;;;;5.99;68.02;97898.50;6097844;23;20022;-62
2021/11/28 11:30:01;;;;;;;20.67;13.82;;;;;;;6.01;68.08;97894.00;6123217;23;20440;-62
2021/11/28 11:32:49;;;;;;;22.05;14.02;;;;;;;6.02;67.99;97893.03;6098204;23;20022;-62
2021/11/28 11:35:24;;;;;;;21.48;14.70;;;;;;;6.06;68.08;97891.91;6123443;23;20534;-61
2021/11/28 11:37:53;;;;;;;24.13;14.38;;;;;;;6.09;68.38;97899.56;6123292;23;20501;-63
2021/11/28 11:40:22;;;;;;;21.48;14.75;;;;;;;6.12;68.38;97899.34;6123075;23;20100;-63
2021/11/28 11:42:51;;;;;;;22.00;13.48;;;;;;;6.17;68.20;97892.97;6097133;23;20037;-61
2021/11/28 11:45:24;;;;;;;19.90;13.77;;;;;;;6.20;68.35;97890.97;6123363;23;20041;-61